sensor_id;sensor_type;location;lat;lon;timestamp;P1;durP1;ratioP1;P2;durP2;ratioP2
20954;SDS011;10636;19.390;-99.256;2024-03-23T00:53:55;10.00;;;7.95;;
20954;SDS011;10636;19.390;-99.256;2024-03-23T00:56:22;12.85;;;8.52;;
20954;SDS011;10636;19.390;-99.256;2024-03-23T00:58:51;9.70;;;8.10;;
20954;SDS011;10636;19.390;-99.256;2024-03-23T01:01:18;12.50;;;8.98;;
20954;SDS011;10636;19.390;-99.256;2024-03-23T01:03:47;10.65;;;8.95;;
20954;SDS011;10636;19.390;-99.256;2024-03-23T01:06:14;11.23;;;10.03;;
20954;SDS011;10636;19.390;-99.256;2024-03-23T01:08:43;14.57;;;10.02;;
20954;SDS011;10636;19.390;-99.256;2024-03-23T01:11:12;12.02;;;9.90;;
20954;SDS011;10636;19.390;-99.256;2024-03-23T01:13:40;12.02;;;9.30;;
20954;SDS011;10636;19.390;-99.256;2024-03-23T01:16:07;10.80;;;8.82;;
20954;SDS011;10636;19.390;-99.256;2024-03-23T01:18:36;10.20;;;8.80;;
20954;SDS011;10636;19.390;-99.256;2024-03-23T01:21:04;11.50;;;8.93;;
20954;SDS011;10636;19.390;-99.256;2024-03-23T01:23:32;12.23;;;8.73;;
20954;SDS011;10636;19.390;-99.256;2024-03-23T01:25:59;10.25;;;9.25;;
20954;SDS011;10636;19.390;-99.256;2024-03-23T01:28:30;10.25;;;9.18;;
20954;SDS011;10636;19.390;-99.256;2024-03-23T01:30:57;11.23;;;9.18;;
20954;SDS011;10636;19.390;-99.256;2024-03-23T01:33:26;10.63;;;8.68;;
20954;SDS011;10636;19.390;-99.256;2024-03-23T01:35:53;10.50;;;8.63;;
20954;SDS011;10636;19.390;-99.256;2024-03-23T01:38:22;11.77;;;8.55;;
20954;SDS011;10636;19.390;-99.256;2024-03-23T01:40:49;9.13;;;7.90;;
20954;SDS011;10636;19.390;-99.256;2024-03-23T01:43:23;10.80;;;8.55;;
20954;SDS011;10636;19.390;-99.256;2024-03-23T01:45:52;8.93;;;7.68;;
20954;SDS011;10636;19.390;-99.256;2024-03-23T01:48:21;8.30;;;7.50;;
20954;SDS011;10636;19.390;-99.256;2024-03-23T01:50:48;10.60;;;7.53;;
20954;SDS011;10636;19.390;-99.256;2024-03-23T01:53:17;9.60;;;8.48;;
20954;SDS011;10636;19.390;-99.256;2024-03-23T01:55:49;11.88;;;8.43;;
20954;SDS011;10636;19.390;-99.256;2024-03-23T01:58:18;9.90;;;8.32;;
20954;SDS011;10636;19.390;-99.256;2024-03-23T02:00:46;12.43;;;9.00;;
20954;SDS011;10636;19.390;-99.256;2024-03-23T02:03:26;12.63;;;9.60;;
20954;SDS011;10636;19.390;-99.256;2024-03-23T02:05:53;12.10;;;10.02;;
20954;SDS011;10636;19.390;-99.256;2024-03-23T02:08:23;12.27;;;10.18;;
20954;SDS011;10636;19.390;-99.256;2024-03-23T02:10:51;14.38;;;10.82;;
20954;SDS011;10636;19.390;-99.256;2024-03-23T02:13:24;12.20;;;10.90;;
20954;SDS011;10636;19.390;-99.256;2024-03-23T02:15:54;13.18;;;11.43;;
20954;SDS011;10636;19.390;-99.256;2024-03-23T02:18:23;14.45;;;11.88;;
20954;SDS011;10636;19.390;-99.256;2024-03-23T02:20:52;14.25;;;12.23;;
20954;SDS011;10636;19.390;-99.256;2024-03-23T02:23:22;13.27;;;11.73;;
20954;SDS011;10636;19.390;-99.256;2024-03-23T02:25:50;16.15;;;11.32;;
20954;SDS011;10636;19.390;-99.256;2024-03-23T02:28:21;14.38;;;12.10;;
20954;SDS011;10636;19.390;-99.256;2024-03-23T02:30:49;13.52;;;11.45;;
20954;SDS011;10636;19.390;-99.256;2024-03-23T02:33:17;13.15;;;11.75;;
20954;SDS011;10636;19.390;-99.256;2024-03-23T02:35:45;13.60;;;12.20;;
20954;SDS011;10636;19.390;-99.256;2024-03-23T02:38:14;15.35;;;13.20;;
20954;SDS011;10636;19.390;-99.256;2024-03-23T02:40:43;16.05;;;12.32;;
20954;SDS011;10636;19.390;-99.256;2024-03-23T02:43:12;14.63;;;13.10;;
20954;SDS011;10636;19.390;-99.256;2024-03-23T02:45:39;15.35;;;13.07;;
20954;SDS011;10636;19.390;-99.256;2024-03-23T02:48:07;16.85;;;13.02;;
20954;SDS011;10636;19.390;-99.256;2024-03-23T02:50:35;16.10;;;12.63;;
20954;SDS011;10636;19.390;-99.256;2024-03-23T02:53:04;12.45;;;10.93;;
20954;SDS011;10636;19.390;-99.256;2024-03-23T02:55:31;13.77;;;11.05;;
20954;SDS011;10636;19.390;-99.256;2024-03-23T02:58:01;12.02;;;10.55;;
20954;SDS011;10636;19.390;-99.256;2024-03-23T03:00:28;15.07;;;10.75;;
20954;SDS011;10636;19.390;-99.256;2024-03-23T03:02:57;14.75;;;12.50;;
20954;SDS011;10636;19.390;-99.256;2024-03-23T03:05:24;14.60;;;12.25;;
20954;SDS011;10636;19.390;-99.256;2024-03-23T03:07:53;16.27;;;12.52;;
20954;SDS011;10636;19.390;-99.256;2024-03-23T03:10:20;15.90;;;12.63;;
20954;SDS011;10636;19.390;-99.256;2024-03-23T03:12:51;16.77;;;13.23;;
20954;SDS011;10636;19.390;-99.256;2024-03-23T03:15:20;18.02;;;14.35;;
20954;SDS011;10636;19.390;-99.256;2024-03-23T03:17:49;15.98;;;14.35;;
20954;SDS011;10636;19.390;-99.256;2024-03-23T03:20:16;18.50;;;12.70;;
20954;SDS011;10636;19.390;-99.256;2024-03-23T03:22:45;14.30;;;12.80;;
20954;SDS011;10636;19.390;-99.256;2024-03-23T03:25:12;18.02;;;12.48;;
20954;SDS011;10636;19.390;-99.256;2024-03-23T03:27:41;14.77;;;11.35;;
20954;SDS011;10636;19.390;-99.256;2024-03-23T03:30:08;13.38;;;10.30;;
20954;SDS011;10636;19.390;-99.256;2024-03-23T03:32:42;13.68;;;10.93;;
20954;SDS011;10636;19.390;-99.256;2024-03-23T03:35:09;13.18;;;10.45;;
20954;SDS011;10636;19.390;-99.256;2024-03-23T03:37:38;14.57;;;10.35;;
20954;SDS011;10636;19.390;-99.256;2024-03-23T03:40:06;11.63;;;9.95;;
20954;SDS011;10636;19.390;-99.256;2024-03-23T03:42:35;11.68;;;10.20;;
20954;SDS011;10636;19.390;-99.256;2024-03-23T03:45:05;10.90;;;9.70;;
20954;SDS011;10636;19.390;-99.256;2024-03-23T03:47:37;13.77;;;9.63;;
20954;SDS011;10636;19.390;-99.256;2024-03-23T03:50:06;12.35;;;9.93;;
20954;SDS011;10636;19.390;-99.256;2024-03-23T03:52:35;13.32;;;10.07;;
20954;SDS011;10636;19.390;-99.256;2024-03-23T03:55:02;14.63;;;10.50;;
20954;SDS011;10636;19.390;-99.256;2024-03-23T03:57:38;15.65;;;10.65;;
20954;SDS011;10636;19.390;-99.256;2024-03-23T04:00:06;12.07;;;10.88;;
20954;SDS011;10636;19.390;-99.256;2024-03-23T04:02:38;12.45;;;11.05;;
20954;SDS011;10636;19.390;-99.256;2024-03-23T04:05:08;15.18;;;10.95;;
20954;SDS011;10636;19.390;-99.256;2024-03-23T04:07:36;13.10;;;10.52;;
20954;SDS011;10636;19.390;-99.256;2024-03-23T04:10:07;12.57;;;10.73;;
20954;SDS011;10636;19.390;-99.256;2024-03-23T04:12:36;14.35;;;11.40;;
20954;SDS011;10636;19.390;-99.256;2024-03-23T04:15:04;14.57;;;12.05;;
20954;SDS011;10636;19.390;-99.256;2024-03-23T04:17:36;13.73;;;12.10;;
20954;SDS011;10636;19.390;-99.256;2024-03-23T04:20:04;14.70;;;13.23;;
20954;SDS011;10636;19.390;-99.256;2024-03-23T04:22:38;15.52;;;11.85;;
20954;SDS011;10636;19.390;-99.256;2024-03-23T04:25:06;13.88;;;12.48;;
20954;SDS011;10636;19.390;-99.256;2024-03-23T04:27:36;13.88;;;12.35;;
20954;SDS011;10636;19.390;-99.256;2024-03-23T04:30:04;15.15;;;12.52;;
20954;SDS011;10636;19.390;-99.256;2024-03-23T04:32:36;14.38;;;12.88;;
20954;SDS011;10636;19.390;-99.256;2024-03-23T04:35:05;14.27;;;12.85;;
20954;SDS011;10636;19.390;-99.256;2024-03-23T04:37:35;15.00;;;13.50;;
20954;SDS011;10636;19.390;-99.256;2024-03-23T04:40:06;16.25;;;13.60;;
20954;SDS011;10636;19.390;-99.256;2024-03-23T04:42:36;15.98;;;13.93;;
20954;SDS011;10636;19.390;-99.256;2024-03-23T04:45:05;16.02;;;13.45;;
20954;SDS011;10636;19.390;-99.256;2024-03-23T04:47:34;15.30;;;13.70;;
20954;SDS011;10636;19.390;-99.256;2024-03-23T04:50:03;20.10;;;13.93;;
20954;SDS011;10636;19.390;-99.256;2024-03-23T04:52:32;16.15;;;13.43;;
20954;SDS011;10636;19.390;-99.256;2024-03-23T04:55:01;15.45;;;13.32;;
20954;SDS011;10636;19.390;-99.256;2024-03-23T04:57:31;16.10;;;14.40;;
20954;SDS011;10636;19.390;-99.256;2024-03-23T05:00:00;17.23;;;15.50;;
20954;SDS011;10636;19.390;-99.256;2024-03-23T05:02:28;15.27;;;13.13;;
20954;SDS011;10636;19.390;-99.256;2024-03-23T05:05:01;15.00;;;13.50;;
20954;SDS011;10636;19.390;-99.256;2024-03-23T05:07:33;14.93;;;12.77;;
20954;SDS011;10636;19.390;-99.256;2024-03-23T05:10:01;14.38;;;12.98;;
20954;SDS011;10636;19.390;-99.256;2024-03-23T05:12:33;14.80;;;13.20;;
20954;SDS011;10636;19.390;-99.256;2024-03-23T05:15:02;14.35;;;12.80;;
20954;SDS011;10636;19.390;-99.256;2024-03-23T05:17:30;14.65;;;13.10;;
20954;SDS011;10636;19.390;-99.256;2024-03-23T05:20:02;14.55;;;12.52;;
20954;SDS011;10636;19.390;-99.256;2024-03-23T05:22:32;14.65;;;12.18;;
20954;SDS011;10636;19.390;-99.256;2024-03-23T05:25:00;14.00;;;12.70;;
20954;SDS011;10636;19.390;-99.256;2024-03-23T05:27:31;14.43;;;13.00;;
20954;SDS011;10636;19.390;-99.256;2024-03-23T05:30:02;15.15;;;11.98;;
20954;SDS011;10636;19.390;-99.256;2024-03-23T05:32:30;14.13;;;11.93;;
20954;SDS011;10636;19.390;-99.256;2024-03-23T05:34:58;14.48;;;11.98;;
20954;SDS011;10636;19.390;-99.256;2024-03-23T05:37:25;13.98;;;12.45;;
20954;SDS011;10636;19.390;-99.256;2024-03-23T05:39:59;13.40;;;11.82;;
20954;SDS011;10636;19.390;-99.256;2024-03-23T05:42:27;13.73;;;12.32;;
20954;SDS011;10636;19.390;-99.256;2024-03-23T05:44:57;13.48;;;12.10;;
20954;SDS011;10636;19.390;-99.256;2024-03-23T05:47:24;14.20;;;12.05;;
20954;SDS011;10636;19.390;-99.256;2024-03-23T05:49:53;13.48;;;12.07;;
20954;SDS011;10636;19.390;-99.256;2024-03-23T05:52:20;13.05;;;11.75;;
20954;SDS011;10636;19.390;-99.256;2024-03-23T05:54:50;14.25;;;11.57;;
20954;SDS011;10636;19.390;-99.256;2024-03-23T05:57:18;13.68;;;12.30;;
20954;SDS011;10636;19.390;-99.256;2024-03-23T05:59:46;13.38;;;11.43;;
20954;SDS011;10636;19.390;-99.256;2024-03-23T06:02:15;13.25;;;11.82;;
20954;SDS011;10636;19.390;-99.256;2024-03-23T06:04:45;13.02;;;11.73;;
20954;SDS011;10636;19.390;-99.256;2024-03-23T06:07:12;13.43;;;12.02;;
20954;SDS011;10636;19.390;-99.256;2024-03-23T06:09:41;13.43;;;12.10;;
20954;SDS011;10636;19.390;-99.256;2024-03-23T06:12:10;12.82;;;11.52;;
20954;SDS011;10636;19.390;-99.256;2024-03-23T06:14:39;13.38;;;11.18;;
20954;SDS011;10636;19.390;-99.256;2024-03-23T06:17:06;12.73;;;11.43;;
20954;SDS011;10636;19.390;-99.256;2024-03-23T06:19:37;12.43;;;11.18;;
20954;SDS011;10636;19.390;-99.256;2024-03-23T06:22:05;12.63;;;11.10;;
20954;SDS011;10636;19.390;-99.256;2024-03-23T06:24:36;12.18;;;10.60;;
20954;SDS011;10636;19.390;-99.256;2024-03-23T06:27:04;12.40;;;11.10;;
20954;SDS011;10636;19.390;-99.256;2024-03-23T06:29:33;12.15;;;10.95;;
20954;SDS011;10636;19.390;-99.256;2024-03-23T06:32:03;11.75;;;10.55;;
20954;SDS011;10636;19.390;-99.256;2024-03-23T06:34:31;12.10;;;10.85;;
20954;SDS011;10636;19.390;-99.256;2024-03-23T06:37:00;12.10;;;10.82;;
20954;SDS011;10636;19.390;-99.256;2024-03-23T06:39:29;11.65;;;10.45;;
20954;SDS011;10636;19.390;-99.256;2024-03-23T06:41:57;12.18;;;10.25;;
20954;SDS011;10636;19.390;-99.256;2024-03-23T06:44:25;12.13;;;10.88;;
20954;SDS011;10636;19.390;-99.256;2024-03-23T06:46:53;12.20;;;10.80;;
20954;SDS011;10636;19.390;-99.256;2024-03-23T06:49:22;11.63;;;10.40;;
20954;SDS011;10636;19.390;-99.256;2024-03-23T06:51:50;11.57;;;10.45;;
20954;SDS011;10636;19.390;-99.256;2024-03-23T06:54:24;12.32;;;10.57;;
20954;SDS011;10636;19.390;-99.256;2024-03-23T06:56:51;11.23;;;10.02;;
20954;SDS011;10636;19.390;-99.256;2024-03-23T06:59:20;10.82;;;9.73;;
20954;SDS011;10636;19.390;-99.256;2024-03-23T07:01:47;10.77;;;9.70;;
20954;SDS011;10636;19.390;-99.256;2024-03-23T07:04:16;14.82;;;10.25;;
20954;SDS011;10636;19.390;-99.256;2024-03-23T07:06:46;11.00;;;9.82;;
20954;SDS011;10636;19.390;-99.256;2024-03-23T07:09:15;10.60;;;9.50;;
20954;SDS011;10636;19.390;-99.256;2024-03-23T07:11:44;11.43;;;9.63;;
20954;SDS011;10636;19.390;-99.256;2024-03-23T07:14:12;13.65;;;9.80;;
20954;SDS011;10636;19.390;-99.256;2024-03-23T07:16:40;11.30;;;10.10;;
20954;SDS011;10636;19.390;-99.256;2024-03-23T07:19:08;11.23;;;10.00;;
20954;SDS011;10636;19.390;-99.256;2024-03-23T07:21:36;11.02;;;10.00;;
20954;SDS011;10636;19.390;-99.256;2024-03-23T07:24:04;11.32;;;10.15;;
20954;SDS011;10636;19.390;-99.256;2024-03-23T07:26:33;11.65;;;10.50;;
20954;SDS011;10636;19.390;-99.256;2024-03-23T07:29:03;13.20;;;10.48;;
20954;SDS011;10636;19.390;-99.256;2024-03-23T07:31:32;10.93;;;9.82;;
20954;SDS011;10636;19.390;-99.256;2024-03-23T07:33:59;11.32;;;10.02;;
20954;SDS011;10636;19.390;-99.256;2024-03-23T07:36:27;12.43;;;10.10;;
20954;SDS011;10636;19.390;-99.256;2024-03-23T07:38:55;11.65;;;10.07;;
20954;SDS011;10636;19.390;-99.256;2024-03-23T07:41:23;11.52;;;10.43;;
20954;SDS011;10636;19.390;-99.256;2024-03-23T07:43:51;11.85;;;10.60;;
20954;SDS011;10636;19.390;-99.256;2024-03-23T07:46:24;11.48;;;10.20;;
20954;SDS011;10636;19.390;-99.256;2024-03-23T07:48:51;11.63;;;10.43;;
20954;SDS011;10636;19.390;-99.256;2024-03-23T07:51:20;11.15;;;9.80;;
20954;SDS011;10636;19.390;-99.256;2024-03-23T07:53:48;10.82;;;9.73;;
20954;SDS011;10636;19.390;-99.256;2024-03-23T07:56:18;11.52;;;9.80;;
20954;SDS011;10636;19.390;-99.256;2024-03-23T07:58:45;11.45;;;9.88;;
20954;SDS011;10636;19.390;-99.256;2024-03-23T08:01:15;12.00;;;10.57;;
20954;SDS011;10636;19.390;-99.256;2024-03-23T08:03:44;11.02;;;10.00;;
20954;SDS011;10636;19.390;-99.256;2024-03-23T08:06:14;10.85;;;9.82;;
20954;SDS011;10636;19.390;-99.256;2024-03-23T08:08:43;11.30;;;10.18;;
20954;SDS011;10636;19.390;-99.256;2024-03-23T08:11:12;11.70;;;9.88;;
20954;SDS011;10636;19.390;-99.256;2024-03-23T08:13:42;10.88;;;9.77;;
20954;SDS011;10636;19.390;-99.256;2024-03-23T08:16:14;10.65;;;9.55;;
20954;SDS011;10636;19.390;-99.256;2024-03-23T08:18:44;11.35;;;10.20;;
20954;SDS011;10636;19.390;-99.256;2024-03-23T08:21:15;11.00;;;10.00;;
20954;SDS011;10636;19.390;-99.256;2024-03-23T08:23:42;11.30;;;10.10;;
20954;SDS011;10636;19.390;-99.256;2024-03-23T08:26:11;11.30;;;10.30;;
20954;SDS011;10636;19.390;-99.256;2024-03-23T08:28:39;10.90;;;9.80;;
20954;SDS011;10636;19.390;-99.256;2024-03-23T08:31:08;11.32;;;10.05;;
20954;SDS011;10636;19.390;-99.256;2024-03-23T08:33:36;11.30;;;9.82;;
20954;SDS011;10636;19.390;-99.256;2024-03-23T08:36:07;11.65;;;10.55;;
20954;SDS011;10636;19.390;-99.256;2024-03-23T08:38:35;11.93;;;10.77;;
20954;SDS011;10636;19.390;-99.256;2024-03-23T08:41:04;11.70;;;10.40;;
20954;SDS011;10636;19.390;-99.256;2024-03-23T08:43:33;12.25;;;9.77;;
20954;SDS011;10636;19.390;-99.256;2024-03-23T08:46:03;11.77;;;10.30;;
20954;SDS011;10636;19.390;-99.256;2024-03-23T08:48:31;11.00;;;9.90;;
20954;SDS011;10636;19.390;-99.256;2024-03-23T08:51:01;11.07;;;10.07;;
20954;SDS011;10636;19.390;-99.256;2024-03-23T08:53:30;11.68;;;10.57;;
20954;SDS011;10636;19.390;-99.256;2024-03-23T08:55:59;11.65;;;10.45;;
20954;SDS011;10636;19.390;-99.256;2024-03-23T08:58:28;10.60;;;9.60;;
20954;SDS011;10636;19.390;-99.256;2024-03-23T09:01:02;13.02;;;10.82;;
20954;SDS011;10636;19.390;-99.256;2024-03-23T09:03:31;12.15;;;10.07;;
20954;SDS011;10636;19.390;-99.256;2024-03-23T09:05:59;11.75;;;10.55;;
20954;SDS011;10636;19.390;-99.256;2024-03-23T09:08:27;12.05;;;10.85;;
20954;SDS011;10636;19.390;-99.256;2024-03-23T09:10:57;16.73;;;11.05;;
20954;SDS011;10636;19.390;-99.256;2024-03-23T09:13:29;12.82;;;10.35;;
20954;SDS011;10636;19.390;-99.256;2024-03-23T09:15:58;11.05;;;10.05;;
20954;SDS011;10636;19.390;-99.256;2024-03-23T09:20:59;10.85;;;9.75;;
20954;SDS011;10636;19.390;-99.256;2024-03-23T09:23:26;11.77;;;10.20;;
20954;SDS011;10636;19.390;-99.256;2024-03-23T09:25:54;11.68;;;10.48;;
20954;SDS011;10636;19.390;-99.256;2024-03-23T09:28:23;11.40;;;10.20;;
20954;SDS011;10636;19.390;-99.256;2024-03-23T09:30:52;11.55;;;10.40;;
20954;SDS011;10636;19.390;-99.256;2024-03-23T09:33:19;11.43;;;10.23;;
20954;SDS011;10636;19.390;-99.256;2024-03-23T09:35:48;11.02;;;10.02;;
20954;SDS011;10636;19.390;-99.256;2024-03-23T09:38:18;11.65;;;10.45;;
20954;SDS011;10636;19.390;-99.256;2024-03-23T09:40:46;11.15;;;10.00;;
20954;SDS011;10636;19.390;-99.256;2024-03-23T09:43:17;12.98;;;10.82;;
20954;SDS011;10636;19.390;-99.256;2024-03-23T09:45:46;12.77;;;10.43;;
20954;SDS011;10636;19.390;-99.256;2024-03-23T09:48:15;11.73;;;10.52;;
20954;SDS011;10636;19.390;-99.256;2024-03-23T09:50:44;11.52;;;10.32;;
20954;SDS011;10636;19.390;-99.256;2024-03-23T09:53:12;11.43;;;10.23;;
20954;SDS011;10636;19.390;-99.256;2024-03-23T09:55:42;11.93;;;9.82;;
20954;SDS011;10636;19.390;-99.256;2024-03-23T09:58:12;12.35;;;11.10;;
20954;SDS011;10636;19.390;-99.256;2024-03-23T10:00:42;12.27;;;10.95;;
20954;SDS011;10636;19.390;-99.256;2024-03-23T10:03:10;12.32;;;11.10;;
20954;SDS011;10636;19.390;-99.256;2024-03-23T10:05:39;11.93;;;10.73;;
20954;SDS011;10636;19.390;-99.256;2024-03-23T10:08:17;12.43;;;11.13;;
20954;SDS011;10636;19.390;-99.256;2024-03-23T10:10:46;12.82;;;10.88;;
20954;SDS011;10636;19.390;-99.256;2024-03-23T10:13:23;13.85;;;11.23;;
20954;SDS011;10636;19.390;-99.256;2024-03-23T10:15:57;13.30;;;11.77;;
20954;SDS011;10636;19.390;-99.256;2024-03-23T10:18:26;12.43;;;11.13;;
20954;SDS011;10636;19.390;-99.256;2024-03-23T10:21:06;12.85;;;10.93;;
20954;SDS011;10636;19.390;-99.256;2024-03-23T10:23:35;12.35;;;10.93;;
20954;SDS011;10636;19.390;-99.256;2024-03-23T10:26:13;12.60;;;11.32;;
20954;SDS011;10636;19.390;-99.256;2024-03-23T10:28:55;12.27;;;10.95;;
20954;SDS011;10636;19.390;-99.256;2024-03-23T10:31:28;12.57;;;10.82;;
20954;SDS011;10636;19.390;-99.256;2024-03-23T10:33:56;12.85;;;11.13;;
20954;SDS011;10636;19.390;-99.256;2024-03-23T10:36:26;13.45;;;11.18;;
20954;SDS011;10636;19.390;-99.256;2024-03-23T10:38:54;12.95;;;11.65;;
20954;SDS011;10636;19.390;-99.256;2024-03-23T10:41:25;12.48;;;10.98;;
20954;SDS011;10636;19.390;-99.256;2024-03-23T10:43:53;14.63;;;11.15;;
20954;SDS011;10636;19.390;-99.256;2024-03-23T10:46:25;12.52;;;11.23;;
20954;SDS011;10636;19.390;-99.256;2024-03-23T10:48:54;13.13;;;11.73;;
20954;SDS011;10636;19.390;-99.256;2024-03-23T10:51:23;15.25;;;12.70;;
20954;SDS011;10636;19.390;-99.256;2024-03-23T10:53:50;14.85;;;12.48;;
20954;SDS011;10636;19.390;-99.256;2024-03-23T10:56:20;16.20;;;13.10;;
20954;SDS011;10636;19.390;-99.256;2024-03-23T10:58:49;16.00;;;14.25;;
20954;SDS011;10636;19.390;-99.256;2024-03-23T11:01:18;18.02;;;14.43;;
20954;SDS011;10636;19.390;-99.256;2024-03-23T11:03:46;19.33;;;15.20;;
20954;SDS011;10636;19.390;-99.256;2024-03-23T11:09:02;18.35;;;15.68;;
20954;SDS011;10636;19.390;-99.256;2024-03-23T11:11:31;21.38;;;16.90;;
20954;SDS011;10636;19.390;-99.256;2024-03-23T11:13:59;20.20;;;17.50;;
20954;SDS011;10636;19.390;-99.256;2024-03-23T11:16:40;21.00;;;17.65;;
20954;SDS011;10636;19.390;-99.256;2024-03-23T11:19:33;19.92;;;17.88;;
20954;SDS011;10636;19.390;-99.256;2024-03-23T11:22:05;21.48;;;17.88;;
20954;SDS011;10636;19.390;-99.256;2024-03-23T11:24:33;20.40;;;16.90;;
20954;SDS011;10636;19.390;-99.256;2024-03-23T11:27:02;19.35;;;17.15;;
20954;SDS011;10636;19.390;-99.256;2024-03-23T11:29:43;22.25;;;17.17;;
20954;SDS011;10636;19.390;-99.256;2024-03-23T11:32:11;20.80;;;17.77;;
20954;SDS011;10636;19.390;-99.256;2024-03-23T11:34:39;19.98;;;17.88;;
20954;SDS011;10636;19.390;-99.256;2024-03-23T11:37:08;19.90;;;17.90;;
20954;SDS011;10636;19.390;-99.256;2024-03-23T11:39:37;20.45;;;17.80;;
20954;SDS011;10636;19.390;-99.256;2024-03-23T11:42:05;17.90;;;16.10;;
20954;SDS011;10636;19.390;-99.256;2024-03-23T11:44:33;18.35;;;16.50;;
20954;SDS011;10636;19.390;-99.256;2024-03-23T11:47:10;18.05;;;16.15;;
20954;SDS011;10636;19.390;-99.256;2024-03-23T11:49:38;17.85;;;15.98;;
20954;SDS011;10636;19.390;-99.256;2024-03-23T11:52:08;17.42;;;15.63;;
20954;SDS011;10636;19.390;-99.256;2024-03-23T11:54:37;18.23;;;15.95;;
20954;SDS011;10636;19.390;-99.256;2024-03-23T11:57:04;17.05;;;15.25;;
20954;SDS011;10636;19.390;-99.256;2024-03-23T11:59:36;16.63;;;14.90;;
20954;SDS011;10636;19.390;-99.256;2024-03-23T12:02:07;16.08;;;14.48;;
20954;SDS011;10636;19.390;-99.256;2024-03-23T12:04:36;16.73;;;14.38;;
20954;SDS011;10636;19.390;-99.256;2024-03-23T12:07:12;15.63;;;14.10;;
20954;SDS011;10636;19.390;-99.256;2024-03-23T12:09:46;16.05;;;14.50;;
20954;SDS011;10636;19.390;-99.256;2024-03-23T12:12:13;16.15;;;13.88;;
20954;SDS011;10636;19.390;-99.256;2024-03-23T12:14:43;14.73;;;13.23;;
20954;SDS011;10636;19.390;-99.256;2024-03-23T12:17:11;14.75;;;13.25;;
20954;SDS011;10636;19.390;-99.256;2024-03-23T12:19:40;15.02;;;13.43;;
20954;SDS011;10636;19.390;-99.256;2024-03-23T12:22:08;15.38;;;12.57;;
20954;SDS011;10636;19.390;-99.256;2024-03-23T12:24:38;17.05;;;13.85;;
20954;SDS011;10636;19.390;-99.256;2024-03-23T12:27:12;15.10;;;13.60;;
20954;SDS011;10636;19.390;-99.256;2024-03-23T12:29:41;14.88;;;13.48;;
20954;SDS011;10636;19.390;-99.256;2024-03-23T12:32:11;15.18;;;12.20;;
20954;SDS011;10636;19.390;-99.256;2024-03-23T12:34:41;14.05;;;12.55;;
20954;SDS011;10636;19.390;-99.256;2024-03-23T12:37:09;14.07;;;12.63;;
20954;SDS011;10636;19.390;-99.256;2024-03-23T12:39:40;14.85;;;13.07;;
20954;SDS011;10636;19.390;-99.256;2024-03-23T12:42:07;15.50;;;13.00;;
20954;SDS011;10636;19.390;-99.256;2024-03-23T12:44:36;16.33;;;12.65;;
20954;SDS011;10636;19.390;-99.256;2024-03-23T12:47:03;15.35;;;12.50;;
20954;SDS011;10636;19.390;-99.256;2024-03-23T12:49:32;16.55;;;12.90;;
20954;SDS011;10636;19.390;-99.256;2024-03-23T12:52:04;15.10;;;12.95;;
20954;SDS011;10636;19.390;-99.256;2024-03-23T12:54:33;18.15;;;12.65;;
20954;SDS011;10636;19.390;-99.256;2024-03-23T12:57:02;18.55;;;12.95;;
20954;SDS011;10636;19.390;-99.256;2024-03-23T12:59:32;15.13;;;12.90;;
20954;SDS011;10636;19.390;-99.256;2024-03-23T13:02:01;17.52;;;12.85;;
20954;SDS011;10636;19.390;-99.256;2024-03-23T13:04:29;15.65;;;13.30;;
20954;SDS011;10636;19.390;-99.256;2024-03-23T13:06:57;14.98;;;13.25;;
20954;SDS011;10636;19.390;-99.256;2024-03-23T13:09:26;14.15;;;12.35;;
20954;SDS011;10636;19.390;-99.256;2024-03-23T13:11:53;14.80;;;12.15;;
20954;SDS011;10636;19.390;-99.256;2024-03-23T13:14:26;15.35;;;12.95;;
20954;SDS011;10636;19.390;-99.256;2024-03-23T13:16:53;14.52;;;13.02;;
20954;SDS011;10636;19.390;-99.256;2024-03-23T13:19:21;16.27;;;13.80;;
20954;SDS011;10636;19.390;-99.256;2024-03-23T13:21:52;16.67;;;12.57;;
20954;SDS011;10636;19.390;-99.256;2024-03-23T13:24:22;18.58;;;13.32;;
20954;SDS011;10636;19.390;-99.256;2024-03-23T13:26:50;18.77;;;13.88;;
20954;SDS011;10636;19.390;-99.256;2024-03-23T13:29:19;18.00;;;14.60;;
20954;SDS011;10636;19.390;-99.256;2024-03-23T13:31:50;17.75;;;15.55;;
20954;SDS011;10636;19.390;-99.256;2024-03-23T13:34:19;19.92;;;15.65;;
20954;SDS011;10636;19.390;-99.256;2024-03-23T13:36:47;20.55;;;15.05;;
20954;SDS011;10636;19.390;-99.256;2024-03-23T13:39:15;18.75;;;15.55;;
20954;SDS011;10636;19.390;-99.256;2024-03-23T13:41:43;19.45;;;15.65;;
20954;SDS011;10636;19.390;-99.256;2024-03-23T13:44:12;20.88;;;15.07;;
20954;SDS011;10636;19.390;-99.256;2024-03-23T13:46:42;21.52;;;16.52;;
20954;SDS011;10636;19.390;-99.256;2024-03-23T13:49:18;19.52;;;15.85;;
20954;SDS011;10636;19.390;-99.256;2024-03-23T13:51:52;23.65;;;19.13;;
20954;SDS011;10636;19.390;-99.256;2024-03-23T13:54:21;22.45;;;17.15;;
20954;SDS011;10636;19.390;-99.256;2024-03-23T13:56:49;55.03;;;30.92;;
20954;SDS011;10636;19.390;-99.256;2024-03-23T13:59:18;47.83;;;27.63;;
20954;SDS011;10636;19.390;-99.256;2024-03-23T14:01:46;44.97;;;25.17;;
20954;SDS011;10636;19.390;-99.256;2024-03-23T14:04:17;38.88;;;22.55;;
20954;SDS011;10636;19.390;-99.256;2024-03-23T14:06:46;33.50;;;22.13;;
20954;SDS011;10636;19.390;-99.256;2024-03-23T14:09:14;30.13;;;21.58;;
20954;SDS011;10636;19.390;-99.256;2024-03-23T14:11:46;25.23;;;21.02;;
20954;SDS011;10636;19.390;-99.256;2024-03-23T14:14:13;27.45;;;20.85;;
20954;SDS011;10636;19.390;-99.256;2024-03-23T14:16:49;25.67;;;21.02;;
20954;SDS011;10636;19.390;-99.256;2024-03-23T14:19:20;25.77;;;20.85;;
20954;SDS011;10636;19.390;-99.256;2024-03-23T14:21:49;26.73;;;20.00;;
20954;SDS011;10636;19.390;-99.256;2024-03-23T14:24:17;25.38;;;18.73;;
20954;SDS011;10636;19.390;-99.256;2024-03-23T14:26:45;24.58;;;19.52;;
20954;SDS011;10636;19.390;-99.256;2024-03-23T14:29:13;23.92;;;19.30;;
20954;SDS011;10636;19.390;-99.256;2024-03-23T14:31:42;27.38;;;20.60;;
20954;SDS011;10636;19.390;-99.256;2024-03-23T14:34:09;25.05;;;21.98;;
20954;SDS011;10636;19.390;-99.256;2024-03-23T14:36:40;25.73;;;18.08;;
20954;SDS011;10636;19.390;-99.256;2024-03-23T14:39:07;22.75;;;18.08;;
20954;SDS011;10636;19.390;-99.256;2024-03-23T14:41:36;24.38;;;21.77;;
20954;SDS011;10636;19.390;-99.256;2024-03-23T14:44:03;26.67;;;22.02;;
20954;SDS011;10636;19.390;-99.256;2024-03-23T14:46:32;24.25;;;21.60;;
20954;SDS011;10636;19.390;-99.256;2024-03-23T14:48:59;25.23;;;22.23;;
20954;SDS011;10636;19.390;-99.256;2024-03-23T14:51:28;23.77;;;21.25;;
20954;SDS011;10636;19.390;-99.256;2024-03-23T14:53:57;25.08;;;22.48;;
20954;SDS011;10636;19.390;-99.256;2024-03-23T14:56:26;25.63;;;19.05;;
20954;SDS011;10636;19.390;-99.256;2024-03-23T14:58:53;24.17;;;21.58;;
20954;SDS011;10636;19.390;-99.256;2024-03-23T15:01:22;26.60;;;21.27;;
20954;SDS011;10636;19.390;-99.256;2024-03-23T15:03:49;23.77;;;21.40;;
20954;SDS011;10636;19.390;-99.256;2024-03-23T15:06:19;24.55;;;21.85;;
20954;SDS011;10636;19.390;-99.256;2024-03-23T15:08:46;22.88;;;19.48;;